Terminal Aerodrome Forecast
Issued by NWS

Home | Current Version | Previous Version | Text Only | Print | Product List | Glossary On
Versions: 1 2 3 4 5 6 7 8 9 10 11 12 13
000
FTUS44 KJAN 271151
TAFGTR
TAF
KGTR 271151Z 2712/2812 17008KT P6SM BKN015
     FM271700 19013G19KT P6SM SCT025 BKN040
     FM271900 20013G20KT P6SM VCTS SCT040CB
     FM272200 20011KT P6SM TSRA BKN050CB
     FM280700 20008KT P6SM VCSH OVC009=

USA.gov is the U.S. government's official web portal to all federal, state and local government web resources and services.